Time;durP1;ratioP1;P1;durP2;ratioP2;P2;SDS_P1;SDS_P2;PMS_P1;PMS_P2;Temp;Humidity;BMP_temperature;BMP_pressure;BME280_temperature;BME280_humidity;BME280_pressure;Samples;Min_cycle;Max_cycle;Signal;HPM_P1;HPM_P2
2021/11/14 00:00:57;;;;;;;25.63;15.45;;;;;;;10.63;100.00;99228.47;5092249;28;20185;-77
2021/11/14 00:03:28;;;;;;;21.10;16.40;;;;;;;10.58;100.00;99227.88;5092323;28;20200;-76
2021/11/14 00:05:55;;;;;;;20.77;15.77;;;;;;;10.69;100.00;99225.38;5092292;28;20312;-76
2021/11/14 00:08:23;;;;;;;21.42;15.50;;;;;;;10.66;100.00;99222.88;5092513;28;20204;-77
2021/11/14 00:10:53;;;;;;;21.40;15.48;;;;;;;10.61;100.00;99222.31;5092535;28;20998;-76
2021/11/14 00:13:20;;;;;;;22.83;16.02;;;;;;;10.58;100.00;99223.41;5092187;28;20666;-76
2021/11/14 00:15:47;;;;;;;36.75;26.20;;;;;;;10.32;100.00;99224.19;5092083;28;20203;-77
2021/11/14 00:18:14;;;;;;;21.35;16.58;;;;;;;10.31;100.00;99219.75;5091838;28;20275;-77
2021/11/14 00:20:43;;;;;;;21.25;15.98;;;;;;;10.22;100.00;99227.41;5091610;28;20205;-77
2021/11/14 00:23:11;;;;;;;25.13;15.93;;;;;;;10.17;100.00;99234.88;5091753;28;20191;-76
2021/11/14 00:25:38;;;;;;;22.08;17.27;;;;;;;10.31;100.00;99228.72;5091736;28;20183;-77
2021/11/14 00:28:06;;;;;;;23.35;16.60;;;;;;;10.34;100.00;99230.34;5091566;28;20199;-76
2021/11/14 00:30:33;;;;;;;20.70;16.20;;;;;;;10.31;100.00;99217.94;5091472;28;20547;-77
2021/11/14 00:33:00;;;;;;;23.88;17.33;;;;;;;10.39;100.00;99220.13;5091787;28;20285;-76
2021/11/14 00:35:26;;;;;;;20.05;15.50;;;;;;;10.37;100.00;99222.06;5091632;28;20177;-77
2021/11/14 00:37:55;;;;;;;19.98;15.60;;;;;;;10.31;100.00;99228.72;5091826;28;20228;-77
2021/11/14 00:40:26;;;;;;;23.20;17.30;;;;;;;10.38;100.00;99221.97;5091559;28;20214;-76
2021/11/14 00:42:53;;;;;;;21.27;16.77;;;;;;;10.31;100.00;99230.50;5091350;28;20220;-76
2021/11/14 00:45:19;;;;;;;23.08;16.42;;;;;;;10.30;100.00;99231.47;5091738;28;20563;-77
2021/11/14 00:47:47;;;;;;;22.65;17.73;;;;;;;10.30;100.00;99239.56;5091511;28;20185;-76
2021/11/14 00:50:15;;;;;;;23.45;16.92;;;;;;;10.30;100.00;99231.47;5091650;28;20207;-76
2021/11/14 00:52:43;;;;;;;30.17;18.92;;;;;;;10.29;100.00;99233.31;5091184;28;20205;-78
2021/11/14 00:55:14;;;;;;;22.70;16.98;;;;;;;10.27;100.00;99232.50;5091671;28;20622;-77
2021/11/14 00:57:41;;;;;;;23.00;16.83;;;;;;;10.19;100.00;99227.59;5091626;28;20538;-77
2021/11/14 01:00:11;;;;;;;23.58;17.38;;;;;;;10.25;100.00;99225.50;5091614;28;20269;-77
2021/11/14 01:02:38;;;;;;;22.88;16.55;;;;;;;10.53;100.00;99221.94;5091724;28;20584;-77
2021/11/14 01:05:08;;;;;;;21.83;16.45;;;;;;;10.70;100.00;99227.13;5091630;28;20200;-76
2021/11/14 01:07:35;;;;;;;26.15;17.00;;;;;;;10.56;100.00;99216.34;5091627;28;20669;-76
2021/11/14 01:10:04;;;;;;;31.48;19.38;;;;;;;10.60;100.00;99215.19;5091535;28;20204;-77
2021/11/14 01:12:32;;;;;;;23.98;16.60;;;;;;;10.64;100.00;99216.72;5091415;28;20303;-76
2021/11/14 01:14:59;;;;;;;22.80;17.20;;;;;;;10.55;100.00;99223.56;5091653;28;20397;-76
2021/11/14 01:17:25;;;;;;;23.83;17.65;;;;;;;10.30;100.00;99221.56;5091453;28;20206;-76
2021/11/14 01:19:52;;;;;;;26.42;18.08;;;;;;;10.30;100.00;99232.34;5091304;28;20192;-76
2021/11/14 01:22:18;;;;;;;22.85;16.75;;;;;;;10.13;100.00;99230.69;5091498;28;20268;-77
2021/11/14 01:24:45;;;;;;;23.50;16.63;;;;;;;10.22;100.00;99238.19;5091365;28;20552;-77
2021/11/14 01:27:14;;;;;;;21.35;16.48;;;;;;;10.42;100.00;99230.69;5091184;28;20270;-77
2021/11/14 01:29:42;;;;;;;21.45;17.08;;;;;;;10.29;100.00;99238.69;5091115;28;20219;-77
2021/11/14 01:32:10;;;;;;;22.55;16.23;;;;;;;10.31;100.00;99230.50;5090968;28;20218;-76
2021/11/14 01:34:37;;;;;;;24.33;16.75;;;;;;;10.31;100.00;99230.50;5091326;28;20287;-77
2021/11/14 01:37:04;;;;;;;25.77;17.90;;;;;;;10.34;100.00;99233.03;5091135;28;20180;-77
2021/11/14 01:39:31;;;;;;;23.60;16.83;;;;;;;10.44;100.00;99228.78;5090836;28;20619;-77
2021/11/14 01:41:58;;;;;;;22.65;18.20;;;;;;;10.37;100.00;99224.75;5092304;28;20232;-76
2021/11/14 01:44:25;;;;;;;25.23;17.77;;;;;;;10.51;100.00;99227.41;5094998;28;20292;-76
2021/11/14 01:46:53;;;;;;;22.70;17.38;;;;;;;10.55;100.00;99225.41;5095117;28;20287;-77
2021/11/14 01:49:20;;;;;;;24.65;19.55;;;;;;;10.43;100.00;99235.13;5095007;28;20276;-77
2021/11/14 01:51:46;;;;;;;21.20;17.05;;;;;;;10.42;100.00;99230.69;5094696;28;20626;-77
2021/11/14 01:54:18;;;;;;;23.95;16.65;;;;;;;10.48;100.00;99230.31;5094448;28;20184;-77
2021/11/14 01:56:46;;;;;;;24.25;17.65;;;;;;;10.49;100.00;99228.47;5094455;28;20238;-77
2021/11/14 01:59:12;;;;;;;27.48;18.02;;;;;;;10.56;100.00;99237.88;5094529;28;20291;-77
2021/11/14 02:01:39;;;;;;;34.35;23.00;;;;;;;10.62;100.00;99222.22;5094416;28;20195;-77
2021/11/14 02:04:08;;;;;;;29.85;20.10;;;;;;;10.61;100.00;99233.94;5094407;28;20201;-77
2021/11/14 02:06:38;;;;;;;29.42;22.25;;;;;;;10.57;100.00;99232.41;5094723;28;20268;-77
2021/11/14 02:09:07;;;;;;;27.88;18.95;;;;;;;10.59;100.00;99238.56;5094733;28;20600;-77
2021/11/14 02:11:34;;;;;;;28.02;19.83;;;;;;;10.49;100.00;99240.13;5094608;28;20224;-77
2021/11/14 02:14:01;;;;;;;28.10;18.67;;;;;;;10.49;100.00;99233.88;5094539;28;20213;-77
2021/11/14 02:16:29;;;;;;;29.23;20.58;;;;;;;10.51;100.00;99232.78;5094472;28;20631;-77
2021/11/14 02:18:56;;;;;;;26.90;19.70;;;;;;;10.61;100.00;99247.41;5094376;28;20184;-77
2021/11/14 02:21:25;;;;;;;26.10;18.10;;;;;;;10.30;100.00;99242.25;5094571;28;20196;-77
2021/11/14 02:23:53;;;;;;;25.33;18.13;;;;;;;10.27;100.00;99242.41;5094113;28;20197;-77
2021/11/14 02:26:22;;;;;;;30.40;18.80;;;;;;;10.17;100.00;99242.09;5094253;28;20631;-77
2021/11/14 02:28:50;;;;;;;27.73;18.65;;;;;;;10.28;100.00;99239.59;5094018;28;20184;-77
2021/11/14 02:31:17;;;;;;;28.48;18.77;;;;;;;10.32;100.00;99238.50;5094206;28;20203;-77
2021/11/14 02:33:43;;;;;;;27.40;18.85;;;;;;;10.33;100.00;99250.13;5094161;28;20615;-77
2021/11/14 02:36:11;;;;;;;23.30;16.83;;;;;;;10.46;100.00;99239.44;5094207;28;20192;-77
2021/11/14 02:38:40;;;;;;;28.90;19.00;;;;;;;10.55;100.00;99242.41;5093923;28;20208;-77
2021/11/14 02:41:07;;;;;;;24.95;18.42;;;;;;;10.44;100.00;99244.91;5093893;28;20185;-77
2021/11/14 02:43:35;;;;;;;27.98;19.80;;;;;;;10.50;100.00;99238.31;5093846;28;20234;-76
2021/11/14 02:46:02;;;;;;;25.95;17.58;;;;;;;10.56;100.00;99229.81;5093788;28;20200;-75
2021/11/14 02:48:28;;;;;;;21.40;15.93;;;;;;;10.49;100.00;99231.16;5093961;28;20276;-77
2021/11/14 02:50:57;;;;;;;26.42;18.67;;;;;;;10.57;100.00;99239.63;5093549;28;20215;-77
2021/11/14 02:53:24;;;;;;;24.73;17.63;;;;;;;10.47;100.00;99238.47;5093109;28;20215;-76
2021/11/14 02:55:52;;;;;;;26.25;18.60;;;;;;;10.46;100.00;99239.44;5093505;28;20211;-77
2021/11/14 02:58:21;;;;;;;24.73;18.50;;;;;;;10.48;100.00;99237.53;5093702;28;20184;-77
2021/11/14 03:00:51;;;;;;;27.73;18.63;;;;;;;10.48;100.00;99245.59;5093605;28;20204;-77
2021/11/14 03:03:18;;;;;;;24.15;16.77;;;;;;;10.42;100.00;99249.53;5093616;28;20268;-76
2021/11/14 03:05:45;;;;;;;26.77;17.95;;;;;;;10.42;100.00;99236.06;5093260;28;20191;-75
2021/11/14 03:08:12;;;;;;;25.27;18.88;;;;;;;10.45;100.00;99246.66;5093519;28;20219;-77
2021/11/14 03:10:40;;;;;;;25.77;18.23;;;;;;;10.43;100.00;99241.38;5093241;28;20615;-76
2021/11/14 03:13:11;;;;;;;26.15;18.35;;;;;;;10.39;100.00;99242.53;5093313;28;20208;-77
2021/11/14 03:15:40;;;;;;;27.75;18.17;;;;;;;10.45;100.00;99249.38;5093609;28;20247;-77
2021/11/14 03:18:07;;;;;;;27.52;17.50;;;;;;;10.44;100.00;99247.63;5093453;28;20193;-77
2021/11/14 03:20:35;;;;;;;27.92;18.48;;;;;;;10.38;100.00;99248.88;5092997;28;20254;-76
2021/11/14 03:23:02;;;;;;;26.98;17.98;;;;;;;10.38;100.00;99250.72;5093551;28;20530;-77
2021/11/14 03:25:30;;;;;;;25.40;17.45;;;;;;;10.25;100.00;99255.09;5093074;28;20188;-77
2021/11/14 03:27:57;;;;;;;25.80;17.95;;;;;;;10.23;100.00;99249.81;5093250;28;20676;-77
2021/11/14 03:30:26;;;;;;;24.85;18.70;;;;;;;10.25;100.00;99253.25;5092793;28;20187;-77
2021/11/14 03:32:54;;;;;;;25.38;18.35;;;;;;;10.30;100.00;99250.31;5093129;28;20211;-77
2021/11/14 03:35:22;;;;;;;25.20;17.42;;;;;;;10.41;100.00;99250.50;5092762;28;20205;-77
2021/11/14 03:37:49;;;;;;;28.02;18.10;;;;;;;10.28;100.00;99255.75;5092784;28;20275;-77
2021/11/14 03:40:18;;;;;;;24.58;17.55;;;;;;;10.29;100.00;99249.47;5092885;28;20195;-77
2021/11/14 03:42:45;;;;;;;25.88;18.15;;;;;;;10.40;100.00;99264.91;5092358;28;20225;-75
2021/11/14 03:45:11;;;;;;;25.73;18.23;;;;;;;10.38;100.00;99266.88;5092815;28;20185;-77
2021/11/14 03:47:40;;;;;;;26.52;17.88;;;;;;;10.33;100.00;99264.44;5092782;28;20196;-77
2021/11/14 03:50:09;;;;;;;26.08;18.50;;;;;;;10.25;100.00;99268.56;5092816;28;20698;-76
2021/11/14 03:52:37;;;;;;;26.20;19.50;;;;;;;10.37;100.00;99270.50;5092261;28;20272;-75
2021/11/14 03:55:06;;;;;;;26.00;18.15;;;;;;;10.18;100.00;99271.63;5092492;28;20184;-77
2021/11/14 03:57:32;;;;;;;26.05;17.90;;;;;;;10.22;100.00;99277.66;5092127;28;20204;-77
2021/11/14 03:59:59;;;;;;;27.63;19.38;;;;;;;10.16;100.00;99273.53;5092534;28;20211;-77
2021/11/14 04:02:26;;;;;;;21.95;16.95;;;;;;;10.19;100.00;99281.41;5092476;28;20212;-77
2021/11/14 04:04:54;;;;;;;27.73;17.50;;;;;;;10.20;100.00;99280.47;5091636;28;20539;-77
2021/11/14 04:07:20;;;;;;;26.58;17.13;;;;;;;10.28;100.00;99281.81;5092131;28;20192;-76
2021/11/14 04:09:47;;;;;;;24.05;15.07;;;;;;;10.20;100.00;99275.06;5092356;28;20210;-77
2021/11/14 04:12:14;;;;;;;21.77;15.43;;;;;;;10.29;100.00;99287.13;5092214;28;20200;-76
2021/11/14 04:14:40;;;;;;;17.95;12.95;;;;;;;10.06;100.00;99288.50;5092154;28;20214;-77
2021/11/14 04:17:07;;;;;;;19.75;15.13;;;;;;;9.98;100.00;99293.50;5092098;28;20185;-77
2021/11/14 04:19:34;;;;;;;18.92;14.00;;;;;;;10.08;100.00;99291.94;5091903;28;20295;-77
2021/11/14 04:22:02;;;;;;;21.38;14.70;;;;;;;10.01;100.00;99290.59;5091843;28;20188;-77
2021/11/14 04:24:28;;;;;;;20.23;14.20;;;;;;;10.04;100.00;99293.13;5092232;28;20217;-77
2021/11/14 04:26:55;;;;;;;18.33;13.70;;;;;;;10.12;100.00;99301.56;5091993;28;20199;-77
2021/11/14 04:29:21;;;;;;;16.58;12.05;;;;;;;10.19;100.00;99296.69;5091817;28;20212;-77
2021/11/14 04:31:48;;;;;;;15.05;12.02;;;;;;;10.31;100.00;99297.78;5091995;28;20271;-76
2021/11/14 04:34:15;;;;;;;12.90;9.50;;;;;;;9.81;100.00;99302.56;5091845;28;20217;-76
2021/11/14 04:36:41;;;;;;;9.45;7.10;;;;;;;9.90;100.00;99309.22;5092008;28;20195;-77
2021/11/14 04:39:10;;;;;;;7.57;5.75;;;;;;;9.95;100.00;99307.09;5091972;28;20615;-76
2021/11/14 04:41:36;;;;;;;7.82;5.18;;;;;;;9.72;100.00;99301.31;5091387;28;20237;-77
2021/11/14 04:44:03;;;;;;;6.05;4.30;;;;;;;9.78;100.00;99306.28;5091925;28;20533;-76
2021/11/14 04:46:30;;;;;;;5.75;4.00;;;;;;;9.90;100.00;99314.59;5091685;28;20289;-76
2021/11/14 04:48:56;;;;;;;3.45;3.15;;;;;;;9.87;100.00;99315.63;5091534;28;20245;-77
2021/11/14 04:51:23;;;;;;;3.70;2.90;;;;;;;9.98;100.00;99312.31;5091512;28;20276;-77
2021/11/14 04:53:50;;;;;;;4.93;2.75;;;;;;;9.90;100.00;99315.44;5091753;28;20222;-76
2021/11/14 04:56:18;;;;;;;4.15;3.08;;;;;;;9.80;100.00;99323.19;5091454;28;20211;-77
2021/11/14 04:58:45;;;;;;;3.15;2.85;;;;;;;9.65;100.00;99318.72;5091679;28;20542;-77
2021/11/14 05:01:12;;;;;;;3.50;3.20;;;;;;;9.48;100.00;99318.88;5091630;28;20624;-77
2021/11/14 05:03:39;;;;;;;3.55;2.88;;;;;;;9.54;100.00;99316.69;5091594;28;20552;-77
2021/11/14 05:06:08;;;;;;;3.30;3.00;;;;;;;9.45;100.00;99325.28;5091661;28;20188;-76
2021/11/14 05:08:35;;;;;;;4.05;3.25;;;;;;;9.42;100.00;99319.22;5091601;28;20600;-77
2021/11/14 05:11:02;;;;;;;3.53;3.00;;;;;;;9.58;100.00;99320.91;5091648;28;20188;-76
2021/11/14 05:13:30;;;;;;;3.45;3.20;;;;;;;9.61;100.00;99330.63;5091477;28;20573;-77
2021/11/14 05:15:56;;;;;;;3.45;3.17;;;;;;;9.63;100.00;99320.63;5092915;28;20186;-77
2021/11/14 05:18:23;;;;;;;3.30;3.00;;;;;;;9.62;100.00;99326.97;5095683;28;20202;-76
2021/11/14 05:20:50;;;;;;;2.67;2.42;;;;;;;9.70;100.00;99326.53;5095682;28;20643;-77
2021/11/14 05:23:16;;;;;;;2.63;2.42;;;;;;;9.67;100.00;99332.94;5095640;28;20642;-76
2021/11/14 05:25:44;;;;;;;2.97;2.45;;;;;;;9.61;100.00;99325.25;5095476;28;20203;-76
2021/11/14 05:28:11;;;;;;;2.80;2.55;;;;;;;9.67;100.00;99324.88;5095419;28;20297;-77
2021/11/14 05:30:39;;;;;;;4.00;2.47;;;;;;;9.74;100.00;99330.75;5095493;28;20538;-77
2021/11/14 05:33:06;;;;;;;3.08;2.83;;;;;;;9.70;100.00;99334.59;5095011;28;20234;-77
2021/11/14 05:35:32;;;;;;;2.50;2.30;;;;;;;9.81;100.00;99332.13;5094956;28;20239;-77
2021/11/14 05:37:59;;;;;;;2.75;2.55;;;;;;;9.83;100.00;99335.59;5095354;28;20192;-77
2021/11/14 05:40:26;;;;;;;4.07;3.67;;;;;;;9.67;100.00;99330.25;5094916;28;20203;-77
2021/11/14 05:42:53;;;;;;;2.85;2.65;;;;;;;9.66;100.00;99339.28;5094832;28;20224;-76
2021/11/14 05:45:19;;;;;;;2.47;2.28;;;;;;;9.67;100.00;99345.53;5094830;28;20200;-77
2021/11/14 05:47:47;;;;;;;2.58;2.38;;;;;;;9.76;100.00;99342.31;5095207;28;20184;-77
2021/11/14 05:50:14;;;;;;;2.83;2.42;;;;;;;9.75;100.00;99344.13;5094440;28;20200;-77
2021/11/14 05:52:41;;;;;;;2.55;2.35;;;;;;;9.69;100.00;99347.16;5094391;28;20191;-77
2021/11/14 05:55:09;;;;;;;2.38;2.17;;;;;;;9.55;100.00;99353.34;5094444;28;20219;-77
2021/11/14 05:57:46;;;;;;;3.70;2.78;;;;;;;9.64;100.00;99357.34;5095125;28;20188;-76
2021/11/14 06:00:18;;;;;;;3.00;2.80;;;;;;;9.75;100.00;99354.88;5094945;28;20607;-76
2021/11/14 06:02:48;;;;;;;2.60;2.40;;;;;;;9.60;100.00;99364.69;5094809;28;20189;-77
2021/11/14 06:05:16;;;;;;;2.80;2.50;;;;;;;9.63;100.00;99363.66;5094391;28;20185;-78
2021/11/14 06:07:44;;;;;;;3.83;3.15;;;;;;;9.74;100.00;99368.41;5094016;28;20296;-78
2021/11/14 06:10:11;;;;;;;2.60;2.40;;;;;;;9.60;100.00;99372.75;5093970;28;20207;-77
2021/11/14 06:12:39;;;;;;;2.75;2.55;;;;;;;9.51;100.00;99373.28;5094500;28;20188;-77
2021/11/14 06:15:07;;;;;;;3.00;2.80;;;;;;;9.47;100.00;99369.03;5094144;28;20693;-76
2021/11/14 06:17:34;;;;;;;3.10;2.90;;;;;;;9.39;100.00;99372.19;5094281;28;20627;-76
2021/11/14 06:20:03;;;;;;;3.92;3.60;;;;;;;9.22;100.00;99383.00;5093625;28;20199;-76
2021/11/14 06:22:31;;;;;;;3.70;3.40;;;;;;;9.22;100.00;99388.38;5094304;28;20286;-76
2021/11/14 06:24:58;;;;;;;3.50;3.20;;;;;;;9.28;100.00;99388.03;5094079;28;20254;-77
2021/11/14 06:27:24;;;;;;;3.33;3.10;;;;;;;9.17;100.00;99390.47;5092942;28;20191;-76
2021/11/14 06:29:51;;;;;;;5.38;3.33;;;;;;;9.18;100.00;99397.59;5090807;28;20202;-77
2021/11/14 06:32:18;;;;;;;3.83;3.55;;;;;;;9.27;100.00;99406.91;5094162;28;20213;-76
2021/11/14 06:34:45;;;;;;;3.50;3.20;;;;;;;9.37;100.00;99408.16;5093707;28;20203;-76
2021/11/14 06:37:13;;;;;;;4.07;3.78;;;;;;;9.38;100.00;99413.44;5093649;28;20252;-76
2021/11/14 06:39:40;;;;;;;3.90;3.55;;;;;;;9.29;100.00;99413.94;5094086;28;20203;-77
2021/11/14 06:42:07;;;;;;;4.20;3.78;;;;;;;9.48;100.00;99415.63;5093504;28;20233;-77
2021/11/14 06:44:34;;;;;;;4.18;3.88;;;;;;;9.50;100.00;99421.78;5093734;28;20191;-77
2021/11/14 06:47:01;;;;;;;5.05;3.70;;;;;;;9.55;100.00;99417.00;5093878;28;20312;-76
2021/11/14 06:49:27;;;;;;;3.58;3.28;;;;;;;9.62;100.00;99425.59;5091244;28;20323;-77
2021/11/14 06:51:54;;;;;;;5.95;3.90;;;;;;;9.40;100.00;99430.31;5093156;28;20199;-77
2021/11/14 06:54:22;;;;;;;4.70;4.30;;;;;;;9.47;100.00;99438.91;5081454;28;20253;-78
2021/11/14 06:56:49;;;;;;;5.10;4.57;;;;;;;9.45;100.00;99437.28;5089122;28;20311;-77
2021/11/14 06:59:16;;;;;;;4.53;4.13;;;;;;;9.50;100.00;99445.97;5082305;28;20206;-77
2021/11/14 07:01:42;;;;;;;5.50;5.00;;;;;;;9.39;100.00;99450.09;5083616;28;20222;-78
2021/11/14 07:04:09;;;;;;;4.18;3.65;;;;;;;9.23;100.00;99454.59;5085459;28;20672;-78
2021/11/14 07:06:37;;;;;;;4.50;4.10;;;;;;;9.32;100.00;99458.59;5083431;28;20210;-78
2021/11/14 07:09:04;;;;;;;5.43;4.82;;;;;;;9.35;100.00;99463.78;5086641;28;20941;-78
2021/11/14 07:11:32;;;;;;;4.65;4.25;;;;;;;9.51;100.00;99472.72;5079581;28;20203;-78
2021/11/14 07:14:00;;;;;;;5.30;4.60;;;;;;;9.46;100.00;99460.53;5086664;28;20216;-77
2021/11/14 07:16:27;;;;;;;4.72;4.22;;;;;;;9.50;100.00;99462.09;5084027;28;20202;-77
2021/11/14 07:18:53;;;;;;;5.45;4.95;;;;;;;9.56;100.00;99469.78;5077489;28;20187;-77
2021/11/14 07:21:20;;;;;;;6.13;5.55;;;;;;;9.38;100.00;99472.56;5088031;28;20499;-77
2021/11/14 07:23:47;;;;;;;5.63;4.70;;;;;;;9.53;100.00;99478.03;5091800;28;20216;-77
2021/11/14 07:26:14;;;;;;;6.38;5.38;;;;;;;9.46;100.00;99484.72;5090035;28;20186;-77
2021/11/14 07:28:41;;;;;;;6.03;5.43;;;;;;;9.29;100.00;99486.47;5081244;28;20199;-77
2021/11/14 07:31:08;;;;;;;5.90;5.30;;;;;;;9.20;100.00;99492.34;5087383;28;20210;-77
2021/11/14 07:33:35;;;;;;;5.85;5.32;;;;;;;9.35;100.00;99488.84;5089898;28;20226;-77
2021/11/14 07:36:01;;;;;;;9.85;5.60;;;;;;;9.38;100.00;99486.00;5085045;28;20205;-77
2021/11/14 07:38:28;;;;;;;9.82;5.63;;;;;;;9.35;100.00;99494.22;5081347;28;21004;-77
2021/11/14 07:40:55;;;;;;;6.07;5.47;;;;;;;9.41;100.00;99495.72;5082181;28;21012;-75
2021/11/14 07:43:21;;;;;;;9.65;5.88;;;;;;;9.35;100.00;99496.91;5090986;28;20961;-76
2021/11/14 07:45:49;;;;;;;7.15;6.05;;;;;;;9.21;100.00;99501.31;5091090;28;20314;-76
2021/11/14 07:48:16;;;;;;;7.40;6.45;;;;;;;9.23;100.00;99505.66;5089039;28;20221;-76
2021/11/14 07:50:43;;;;;;;9.73;8.85;;;;;;;9.11;100.00;99499.13;5091480;28;20207;-77
2021/11/14 07:53:10;;;;;;;9.95;6.78;;;;;;;9.06;100.00;99506.53;5091832;28;20198;-78
2021/11/14 07:55:37;;;;;;;8.50;7.45;;;;;;;8.99;100.00;99505.13;5090095;28;20211;-74
2021/11/14 07:58:06;;;;;;;7.40;6.05;;;;;;;9.29;100.00;99509.81;5091787;28;20205;-74
2021/11/14 08:00:34;;;;;;;7.28;6.30;;;;;;;9.37;100.00;99505.75;5090440;28;20199;-76
2021/11/14 08:03:03;;;;;;;8.20;6.85;;;;;;;9.46;100.00;99516.97;5092125;28;20195;-76
2021/11/14 08:05:30;;;;;;;9.43;6.97;;;;;;;9.45;100.00;99515.22;5091579;28;20281;-75
2021/11/14 08:07:57;;;;;;;8.65;7.10;;;;;;;9.38;100.00;99517.34;5091982;28;20215;-75
2021/11/14 08:10:25;;;;;;;8.50;6.63;;;;;;;9.54;100.00;99515.59;5091536;28;20188;-75
2021/11/14 08:12:52;;;;;;;10.60;7.80;;;;;;;9.29;100.00;99513.34;5091521;28;20282;-75
2021/11/14 08:15:19;;;;;;;8.52;7.15;;;;;;;9.19;100.00;99518.34;5090904;28;20251;-76
2021/11/14 08:17:46;;;;;;;8.32;6.93;;;;;;;9.21;100.00;99520.13;5090894;28;20568;-75
2021/11/14 08:20:15;;;;;;;8.65;6.38;;;;;;;9.27;100.00;99512.59;5091121;28;20199;-76
2021/11/14 08:22:41;;;;;;;8.20;7.32;;;;;;;9.15;100.00;99513.22;5090930;28;20201;-76
2021/11/14 08:25:09;;;;;;;8.07;7.28;;;;;;;9.18;100.00;99513.09;5091464;28;20183;-75
2021/11/14 08:27:37;;;;;;;7.13;6.53;;;;;;;9.37;100.00;99516.50;5091160;28;20277;-76
2021/11/14 08:30:05;;;;;;;8.27;6.85;;;;;;;9.43;100.00;99520.69;5077618;28;20204;-77
2021/11/14 08:32:32;;;;;;;8.40;7.13;;;;;;;9.53;100.00;99531.78;5083629;28;20290;-74
2021/11/14 08:34:58;;;;;;;8.25;7.00;;;;;;;9.57;100.00;99531.53;5081991;28;20707;-77
2021/11/14 08:37:27;;;;;;;8.40;6.57;;;;;;;9.69;100.00;99538.06;5078215;28;20203;-77
2021/11/14 08:39:53;;;;;;;11.13;6.22;;;;;;;9.74;100.00;99544.03;5083074;28;20211;-73
2021/11/14 08:42:20;;;;;;;6.95;6.13;;;;;;;9.62;100.00;99543.88;5079894;28;20239;-73
2021/11/14 08:44:47;;;;;;;7.25;6.55;;;;;;;9.52;100.00;99540.78;5083722;28;20557;-73
2021/11/14 08:47:15;;;;;;;6.82;6.13;;;;;;;9.57;100.00;99539.59;5089295;28;20206;-74
2021/11/14 08:49:42;;;;;;;7.45;6.70;;;;;;;9.57;100.00;99547.66;5091159;28;20280;-73
2021/11/14 08:52:09;;;;;;;7.88;5.80;;;;;;;9.75;100.00;99553.00;5091426;28;20199;-74
2021/11/14 08:54:38;;;;;;;7.47;6.30;;;;;;;9.86;100.00;99552.38;5090963;28;20211;-74
2021/11/14 08:57:06;;;;;;;7.40;5.70;;;;;;;9.88;100.00;99556.75;5091419;28;20284;-75
2021/11/14 08:59:32;;;;;;;6.90;6.05;;;;;;;9.79;100.00;99555.44;5089855;28;20321;-73
2021/11/14 09:01:59;;;;;;;5.78;5.28;;;;;;;9.82;100.00;99557.06;5089447;28;20211;-72
2021/11/14 09:04:26;;;;;;;5.70;5.10;;;;;;;9.89;100.00;99558.47;5091168;28;20201;-72
2021/11/14 09:06:54;;;;;;;5.13;4.63;;;;;;;9.94;100.00;99568.97;5085585;28;20203;-74
2021/11/14 09:09:22;;;;;;;7.40;6.07;;;;;;;9.73;100.00;99573.72;5081541;28;20506;-75
2021/11/14 09:11:51;;;;;;;6.00;5.47;;;;;;;9.91;100.00;99564.63;5079618;28;20208;-74
2021/11/14 09:14:19;;;;;;;5.90;5.10;;;;;;;10.00;100.00;99579.38;5071619;28;20276;-74
2021/11/14 09:16:46;;;;;;;5.20;4.75;;;;;;;9.92;100.00;99582.47;5071742;28;20663;-73
2021/11/14 09:19:13;;;;;;;5.43;4.82;;;;;;;10.07;100.00;99585.28;5081004;28;20639;-74
2021/11/14 09:21:40;;;;;;;5.80;4.47;;;;;;;10.12;100.00;99589.44;5087100;28;20189;-71
2021/11/14 09:24:07;;;;;;;4.63;4.20;;;;;;;10.19;100.00;99593.50;5083598;28;20279;-74
2021/11/14 09:26:34;;;;;;;5.30;4.80;;;;;;;9.94;100.00;99585.94;5076965;28;20297;-73
2021/11/14 09:29:03;;;;;;;5.57;4.85;;;;;;;10.17;100.00;99594.56;5079943;28;20228;-74
2021/11/14 09:31:30;;;;;;;4.78;4.22;;;;;;;10.32;100.00;99598.25;5084214;28;20189;-74
2021/11/14 09:33:57;;;;;;;6.03;4.50;;;;;;;10.41;100.00;99600.41;5081164;28;20197;-73
2021/11/14 09:36:24;;;;;;;4.32;3.92;;;;;;;10.66;100.00;99602.53;5082008;28;20216;-74
2021/11/14 09:38:51;;;;;;;4.22;3.83;;;;;;;10.67;100.00;99596.19;5081014;28;20193;-73
2021/11/14 09:41:19;;;;;;;3.80;3.50;;;;;;;10.65;98.56;99598.13;5086271;28;20273;-74
2021/11/14 09:43:46;;;;;;;4.82;4.40;;;;;;;10.68;99.35;99602.47;5080026;28;20185;-75
2021/11/14 09:46:14;;;;;;;4.88;4.38;;;;;;;10.48;100.00;99609.88;5079804;28;20226;-74
2021/11/14 09:48:40;;;;;;;3.80;3.40;;;;;;;10.61;98.63;99612.72;5080927;28;20215;-74
2021/11/14 09:51:07;;;;;;;4.45;3.55;;;;;;;10.60;99.39;99616.34;5081745;28;20271;-74
2021/11/14 09:53:37;;;;;;;4.32;3.92;;;;;;;10.40;100.00;99607.63;5081929;28;20186;-75
2021/11/14 09:56:06;;;;;;;4.68;4.13;;;;;;;10.33;100.00;99614.28;5078614;28;20203;-75
2021/11/14 09:58:33;;;;;;;5.18;3.88;;;;;;;10.49;100.00;99608.94;5081549;28;20201;-75
2021/11/14 10:01:00;;;;;;;4.70;4.30;;;;;;;10.50;100.00;99610.66;5079260;28;20222;-75
2021/11/14 10:03:28;;;;;;;4.90;4.50;;;;;;;10.47;100.00;99615.31;5082837;28;20186;-74
2021/11/14 10:05:55;;;;;;;5.85;5.28;;;;;;;10.72;100.00;99615.66;5085929;28;20195;-75
2021/11/14 10:08:23;;;;;;;5.50;5.00;;;;;;;10.76;98.40;99606.44;5083489;28;20222;-74
2021/11/14 10:10:52;;;;;;;5.28;4.75;;;;;;;10.62;100.00;99620.69;5081771;28;20197;-74
2021/11/14 10:13:22;;;;;;;4.82;4.43;;;;;;;10.49;100.00;99622.38;5084014;28;20203;-74
2021/11/14 10:15:51;;;;;;;5.40;4.90;;;;;;;10.32;100.00;99617.94;5090406;28;20204;-75
2021/11/14 10:18:20;;;;;;;6.30;5.68;;;;;;;10.69;100.00;99615.81;5082449;28;20222;-73
2021/11/14 10:20:52;;;;;;;5.75;5.25;;;;;;;10.47;100.00;99621.59;5085881;28;20190;-73
2021/11/14 10:23:20;;;;;;;8.63;5.82;;;;;;;10.51;100.00;99620.44;5083288;28;20189;-73
2021/11/14 10:25:49;;;;;;;6.93;6.20;;;;;;;10.68;100.00;99610.53;5086009;28;20197;-74
2021/11/14 10:28:16;;;;;;;6.25;5.65;;;;;;;10.72;100.00;99620.16;5089392;28;20193;-74
2021/11/14 10:30:47;;;;;;;5.88;5.28;;;;;;;10.70;100.00;99605.94;5084654;28;20696;-74
2021/11/14 10:33:15;;;;;;;5.60;5.10;;;;;;;10.56;100.00;99618.38;5083819;28;20599;-75
2021/11/14 10:35:44;;;;;;;7.13;6.43;;;;;;;10.82;100.00;99610.59;5081631;28;20209;-75
2021/11/14 10:38:14;;;;;;;9.65;6.25;;;;;;;10.73;99.63;99611.13;5084900;28;20193;-74
2021/11/14 10:40:45;;;;;;;7.32;6.60;;;;;;;11.03;98.54;99603.94;5083734;28;20184;-73
2021/11/14 10:43:12;;;;;;;7.82;7.05;;;;;;;11.23;96.74;99608.09;5086059;28;20293;-74
2021/11/14 10:45:42;;;;;;;7.30;6.45;;;;;;;11.03;97.70;99617.41;5082542;28;20194;-75
2021/11/14 10:48:10;;;;;;;10.52;6.30;;;;;;;10.83;98.98;99617.69;5082968;28;20194;-75
2021/11/14 10:50:42;;;;;;;7.60;6.88;;;;;;;10.94;99.23;99606.31;5085507;28;20288;-75
2021/11/14 10:53:11;;;;;;;8.15;7.13;;;;;;;11.15;96.26;99610.41;5082423;28;20193;-73
2021/11/14 10:55:44;;;;;;;7.78;7.07;;;;;;;11.42;94.01;99609.72;5077829;28;20267;-74
2021/11/14 10:58:12;;;;;;;7.50;6.70;;;;;;;10.90;96.22;99608.31;5084703;28;20565;-74
2021/11/14 11:00:40;;;;;;;9.75;8.00;;;;;;;11.14;97.53;99611.34;5083704;28;20192;-74
2021/11/14 11:03:09;;;;;;;9.88;8.10;;;;;;;11.06;98.08;99605.59;5083913;28;20703;-73
2021/11/14 11:05:38;;;;;;;9.07;7.47;;;;;;;11.17;95.86;99610.31;5087402;28;20592;-73
2021/11/14 11:08:07;;;;;;;9.43;8.48;;;;;;;11.26;97.55;99615.13;5086280;28;20224;-73
2021/11/14 11:10:37;;;;;;;11.25;8.88;;;;;;;11.18;97.58;99618.31;5083167;28;20189;-74
2021/11/14 11:13:08;;;;;;;8.68;7.85;;;;;;;11.63;94.94;99626.38;5084217;28;20250;-73
2021/11/14 11:15:45;;;;;;;11.10;9.45;;;;;;;11.57;92.71;99615.97;5084053;28;20564;-74
2021/11/14 11:18:14;;;;;;;10.20;8.52;;;;;;;11.91;90.56;99621.97;5079372;28;20181;-74
2021/11/14 11:20:43;;;;;;;9.73;8.57;;;;;;;11.63;92.07;99615.59;5085422;28;20188;-74
2021/11/14 11:23:15;;;;;;;10.05;8.40;;;;;;;11.61;92.24;99609.41;5079230;28;20490;-74